Time;durP1;ratioP1;P1;durP2;ratioP2;P2;SDS_P1;SDS_P2;PMS_P1;PMS_P2;Temp;Humidity;BMP_temperature;BMP_pressure;BME280_temperature;BME280_humidity;BME280_pressure;Samples;Min_cycle;Max_cycle;Signal;HPM_P1;HPM_P2
2023/05/03 00:02:30;;;;;;;;;;;15.70;66.30;;;;;;3972001;29;20089;-60
2023/05/03 00:05:14;;;;;;;2.88;1.45;;;15.70;65.90;;;;;;3959953;29;20745;-61
2023/05/03 00:07:55;;;;;;;2.85;1.80;;;15.70;66.80;;;;;;3967321;29;20053;-61
2023/05/03 00:10:37;;;;;;;7.20;1.63;;;15.70;66.20;;;;;;3968816;29;20057;-61
2023/05/03 00:13:19;;;;;;;3.20;1.88;;;15.70;66.50;;;;;;3955281;29;20522;-60
2023/05/03 00:16:01;;;;;;;;;;;15.70;65.70;;;;;;3955384;29;20082;-60
2023/05/03 00:18:43;;;;;;;2.55;1.80;;;15.70;65.80;;;;;;3963306;29;19948;-60
2023/05/03 00:21:27;;;;;;;2.35;1.42;;;15.60;66.80;;;;;;3968513;29;20066;-60
2023/05/03 00:24:09;;;;;;;2.67;1.73;;;15.70;66.50;;;;;;3954582;29;20188;-61
2023/05/03 00:26:50;;;;;;;;;;;15.70;66.40;;;;;;3956602;29;20134;-60
2023/05/03 00:29:32;;;;;;;2.97;1.42;;;15.60;66.40;;;;;;3968265;29;20449;-61
2023/05/03 00:32:14;;;;;;;1.48;1.33;;;15.60;67.30;;;;;;3970984;29;20062;-60
2023/05/03 00:34:57;;;;;;;2.17;1.40;;;15.60;66.80;;;;;;3969184;29;20440;-60
2023/05/03 00:37:40;;;;;;;4.63;1.70;;;15.60;66.50;;;;;;3969803;29;20058;-61
2023/05/03 00:40:22;;;;;;;3.92;1.75;;;15.60;66.50;;;;;;3952712;29;20078;-60
2023/05/03 00:43:04;;;;;;;4.03;1.63;;;15.70;67.10;;;;;;3940605;30;20151;-60
2023/05/03 00:45:47;;;;;;;6.15;1.60;;;15.70;67.60;;;;;;3953917;29;20088;-60
2023/05/03 00:48:29;;;;;;;3.53;1.38;;;15.70;67.90;;;;;;3962729;29;20061;-61
2023/05/03 00:51:14;;;;;;;3.35;2.03;;;15.80;68.10;;;;;;3969624;29;20058;-61
2023/05/03 00:53:58;;;;;;;2.38;1.80;;;15.90;67.80;;;;;;3957723;29;20057;-61
2023/05/03 00:56:41;;;;;;;2.67;1.38;;;16.00;67.50;;;;;;3967870;29;20122;-60
2023/05/03 00:59:33;;;;;;;3.20;2.00;;;16.10;67.30;;;;;;3968973;29;20089;-61
2023/05/03 01:02:15;;;;;;;3.05;1.55;;;16.10;67.00;;;;;;3958346;29;20057;-62
2023/05/03 01:04:57;;;;;;;;;;;16.10;67.50;;;;;;3959806;29;20057;-61
2023/05/03 01:07:55;;;;;;;3.40;1.42;;;16.20;66.70;;;;;;3970105;29;19931;-61
2023/05/03 01:10:47;;;;;;;3.45;1.30;;;16.10;66.50;;;;;;3944718;29;20058;-60
2023/05/03 01:13:41;;;;;;;3.28;1.65;;;16.10;66.20;;;;;;3969731;29;20087;-61
2023/05/03 01:16:29;;;;;;;3.55;1.55;;;16.10;66.20;;;;;;3969657;29;20062;-58
2023/05/03 01:19:22;;;;;;;3.10;1.48;;;16.10;66.50;;;;;;3967610;29;20571;-61
2023/05/03 01:22:12;;;;;;;1.92;1.52;;;16.10;66.80;;;;;;3969819;29;20071;-60
2023/05/03 01:25:05;;;;;;;3.15;1.30;;;16.10;66.90;;;;;;3947655;29;20128;-62
2023/05/03 01:27:47;;;;;;;1.63;1.35;;;16.10;66.60;;;;;;3956663;29;20521;-61
2023/05/03 01:30:31;;;;;;;3.35;1.50;;;16.20;66.50;;;;;;3969288;29;20066;-62
2023/05/03 01:33:18;;;;;;;2.80;1.30;;;16.20;66.30;;;;;;3969661;29;20057;-62
2023/05/03 01:36:11;;;;;;;8.80;1.45;;;16.20;66.20;;;;;;3947241;29;20057;-60
2023/05/03 01:38:54;;;;;;;1.90;1.38;;;16.20;66.30;;;;;;3969385;29;20133;-63
2023/05/03 01:41:40;;;;;;;5.32;1.50;;;16.20;66.70;;;;;;3957835;29;20430;-60
2023/05/03 01:44:23;;;;;;;4.70;1.60;;;16.20;66.50;;;;;;3970958;29;20053;-61
2023/05/03 01:47:05;;;;;;;1.45;1.23;;;16.20;66.50;;;;;;3969573;29;20073;-60
2023/05/03 01:49:47;;;;;;;5.53;2.15;;;16.30;66.60;;;;;;3966430;29;20116;-60
2023/05/03 01:52:30;;;;;;;2.58;1.52;;;16.30;66.50;;;;;;3955354;29;20526;-62
2023/05/03 01:55:12;;;;;;;6.47;1.48;;;16.30;66.40;;;;;;3968728;29;20050;-63
2023/05/03 01:57:56;;;;;;;4.70;1.65;;;16.30;66.50;;;;;;3962914;29;20138;-62
2023/05/03 02:00:38;;;;;;;1.30;1.30;;;16.30;66.40;;;;;;3954874;29;20426;-62
2023/05/03 02:03:21;;;;;;;3.50;1.40;;;16.30;66.40;;;;;;3965571;29;20066;-62
2023/05/03 02:06:03;;;;;;;2.47;1.13;;;16.30;66.50;;;;;;3967192;29;20066;-63
2023/05/03 02:08:45;;;;;;;3.85;1.40;;;16.30;66.50;;;;;;3955355;29;20057;-62
2023/05/03 02:11:27;;;;;;;3.45;1.13;;;16.30;66.80;;;;;;3954329;29;20514;-61
2023/05/03 02:14:12;;;;;;;2.42;1.50;;;16.40;66.90;;;;;;3967754;29;20522;-62
2023/05/03 02:16:54;;;;;;;3.95;1.75;;;16.40;66.80;;;;;;3968577;29;20081;-62
2023/05/03 02:19:36;;;;;;;3.85;1.60;;;16.40;66.70;;;;;;3967345;29;20191;-62
2023/05/03 02:22:18;;;;;;;2.15;1.60;;;16.40;66.40;;;;;;3952669;29;20058;-61
2023/05/03 02:25:01;;;;;;;3.30;1.63;;;16.40;66.10;;;;;;3955000;29;20173;-62
2023/05/03 02:27:43;;;;;;;2.55;1.50;;;16.40;66.00;;;;;;3954191;29;20065;-62
2023/05/03 02:30:27;;;;;;;2.55;1.30;;;16.40;66.10;;;;;;3958365;29;20071;-63
2023/05/03 02:33:10;;;;;;;3.67;1.67;;;16.40;66.00;;;;;;3967555;29;20061;-64
2023/05/03 02:35:53;;;;;;;3.25;1.40;;;16.40;66.20;;;;;;3951016;29;20087;-60
2023/05/03 02:38:36;;;;;;;1.95;1.48;;;16.30;66.50;;;;;;3964281;29;20061;-60
2023/05/03 02:41:19;;;;;;;1.98;1.45;;;16.30;66.80;;;;;;3955285;29;20082;-61
2023/05/03 02:44:02;;;;;;;2.78;1.20;;;16.30;66.90;;;;;;3967373;29;20069;-64
2023/05/03 02:46:47;;;;;;;1.98;1.60;;;16.40;67.00;;;;;;3967082;29;20138;-64
2023/05/03 02:49:31;;;;;;;3.90;1.60;;;16.40;66.70;;;;;;3957870;29;20135;-64
2023/05/03 02:52:13;;;;;;;2.40;1.70;;;16.40;66.80;;;;;;3966688;29;20071;-63
2023/05/03 02:54:54;;;;;;;2.60;2.17;;;16.40;66.80;;;;;;3955963;29;20061;-60
2023/05/03 02:57:36;;;;;;;;;;;16.30;66.80;;;;;;3967705;29;20430;-60
2023/05/03 03:00:19;;;;;;;1.45;1.35;;;16.40;67.20;;;;;;3965935;29;19932;-64
2023/05/03 03:03:03;;;;;;;1.65;1.40;;;16.40;67.40;;;;;;3953517;29;20127;-63
2023/05/03 03:05:46;;;;;;;5.07;1.40;;;16.40;67.10;;;;;;3944231;29;20053;-62
2023/05/03 03:08:29;;;;;;;2.33;1.52;;;16.40;66.90;;;;;;3965623;29;20061;-63
2023/05/03 03:11:14;;;;;;;1.88;1.42;;;16.50;66.90;;;;;;3965932;29;20085;-63
2023/05/03 03:13:56;;;;;;;;;;;16.50;66.90;;;;;;3967652;29;20510;-64
2023/05/03 03:16:41;;;;;;;1.67;1.25;;;16.50;67.00;;;;;;3956021;29;19936;-61
2023/05/03 03:19:24;;;;;;;1.48;1.08;;;16.60;66.60;;;;;;3939925;29;20058;-61
2023/05/03 03:22:07;;;;;;;4.40;1.77;;;16.50;66.00;;;;;;3947199;29;20066;-62
2023/05/03 03:24:49;;;;;;;2.42;1.05;;;16.50;66.10;;;;;;3962334;29;20054;-62
2023/05/03 03:27:31;;;;;;;2.40;1.40;;;16.50;66.50;;;;;;3954359;29;20155;-62
2023/05/03 03:30:14;;;;;;;1.95;1.08;;;16.50;66.40;;;;;;3956305;29;20066;-62
2023/05/03 03:33:10;;;;;;;1.67;1.10;;;16.60;65.90;;;;;;3938902;29;20112;-62
2023/05/03 03:35:57;;;;;;;1.58;1.10;;;16.60;66.20;;;;;;3953077;29;20107;-62
2023/05/03 03:38:44;;;;;;;2.17;1.30;;;16.60;66.20;;;;;;3965392;29;20135;-63
2023/05/03 03:41:27;;;;;;;1.77;1.25;;;16.50;66.20;;;;;;3957214;29;20065;-62
2023/05/03 03:44:10;;;;;;;2.80;1.40;;;16.50;65.70;;;;;;3964804;29;20054;-62
2023/05/03 03:46:53;;;;;;;1.98;1.20;;;16.50;65.70;;;;;;3966630;29;20455;-61
2023/05/03 03:49:36;;;;;;;1.13;1.02;;;16.50;66.00;;;;;;3966782;29;20070;-62
2023/05/03 03:52:20;;;;;;;1.45;1.15;;;16.50;66.10;;;;;;3966654;29;20078;-62
2023/05/03 03:55:02;;;;;;;4.15;1.10;;;16.50;66.10;;;;;;3955727;29;20221;-61
2023/05/03 03:57:44;;;;;;;2.60;1.42;;;16.60;66.20;;;;;;3947855;29;20081;-61
2023/05/03 04:00:27;;;;;;;2.85;1.30;;;16.50;66.10;;;;;;3955500;29;20108;-61
2023/05/03 04:03:17;;;;;;;2.33;1.17;;;16.50;66.10;;;;;;3966292;29;20066;-61
2023/05/03 04:06:00;;;;;;;1.52;1.25;;;16.50;66.20;;;;;;3952489;29;20112;-60
2023/05/03 04:08:45;;;;;;;2.15;1.30;;;16.50;66.10;;;;;;3953230;29;20067;-61
2023/05/03 04:11:28;;;;;;;1.30;1.20;;;16.50;66.00;;;;;;3953317;29;20053;-60
2023/05/03 04:14:14;;;;;;;2.78;1.33;;;16.50;66.20;;;;;;3952636;29;20419;-61
2023/05/03 04:16:56;;;;;;;3.28;1.30;;;16.40;66.30;;;;;;3955017;29;20138;-62
2023/05/03 04:19:39;;;;;;;1.70;1.25;;;16.40;66.20;;;;;;3955628;29;20066;-62
2023/05/03 04:22:21;;;;;;;3.35;1.23;;;16.30;66.20;;;;;;3965834;29;20523;-61
2023/05/03 04:25:08;;;;;;;1.65;1.50;;;16.30;66.10;;;;;;3966308;29;20191;-62
2023/05/03 04:27:50;;;;;;;2.33;1.50;;;16.30;66.40;;;;;;3955318;29;20057;-62
2023/05/03 04:30:36;;;;;;;3.17;1.20;;;16.30;67.30;;;;;;3965447;29;20058;-63
2023/05/03 04:33:19;;;;;;;3.03;1.33;;;16.30;67.20;;;;;;3944463;29;20415;-62
2023/05/03 04:36:03;;;;;;;4.85;4.00;;;16.40;67.00;;;;;;3963813;29;20151;-63
2023/05/03 04:38:46;;;;;;;1.90;1.75;;;16.50;66.70;;;;;;3966114;29;20062;-61
2023/05/03 04:41:30;;;;;;;3.58;1.50;;;16.50;66.40;;;;;;3963972;29;20057;-61
2023/05/03 04:44:13;;;;;;;1.50;1.45;;;16.50;66.20;;;;;;3952277;29;20763;-61
2023/05/03 04:46:56;;;;;;;1.77;1.60;;;16.50;66.20;;;;;;3968861;29;20054;-62
2023/05/03 04:49:40;;;;;;;3.83;1.30;;;16.60;66.30;;;;;;3963543;29;20515;-62
2023/05/03 04:52:22;;;;;;;2.20;1.75;;;16.60;66.30;;;;;;3965307;29;20521;-61
2023/05/03 04:55:05;;;;;;;4.63;1.77;;;16.60;66.30;;;;;;3947652;29;20099;-61
2023/05/03 04:57:51;;;;;;;5.25;1.80;;;16.60;66.30;;;;;;3951575;29;20195;-60
2023/05/03 05:00:33;;;;;;;3.45;1.25;;;16.50;66.40;;;;;;3969571;29;20057;-61
2023/05/03 05:03:22;;;;;;;2.05;1.00;;;16.60;66.40;;;;;;3956795;29;20066;-60
2023/05/03 05:06:06;;;;;;;4.28;1.20;;;16.60;66.20;;;;;;3966756;29;20061;-62
2023/05/03 05:08:50;;;;;;;3.33;1.17;;;16.60;66.10;;;;;;3954374;29;20082;-62
2023/05/03 05:11:33;;;;;;;1.55;1.30;;;16.60;66.00;;;;;;3966279;29;20086;-62
2023/05/03 05:14:16;;;;;;;2.00;1.33;;;16.60;66.00;;;;;;3953680;29;20058;-63
2023/05/03 05:16:59;;;;;;;1.80;1.52;;;16.60;65.80;;;;;;3958103;29;20407;-63
2023/05/03 05:19:41;;;;;;;3.60;1.25;;;16.60;65.70;;;;;;3953285;29;20058;-63
2023/05/03 05:22:23;;;;;;;2.67;1.52;;;16.60;65.90;;;;;;3946320;29;20125;-62
2023/05/03 05:25:11;;;;;;;1.77;1.48;;;16.70;66.10;;;;;;3969120;29;20050;-63
2023/05/03 05:27:54;;;;;;;2.55;1.25;;;16.60;65.90;;;;;;3970804;29;20070;-60
2023/05/03 05:30:38;;;;;;;2.33;1.42;;;16.60;65.20;;;;;;3968377;29;20062;-62
2023/05/03 05:33:21;;;;;;;1.65;1.45;;;16.70;65.60;;;;;;3952923;29;20067;-63
2023/05/03 05:36:05;;;;;;;3.50;1.48;;;16.70;65.60;;;;;;3941376;29;20416;-61
2023/05/03 05:38:48;;;;;;;2.70;1.38;;;16.70;65.70;;;;;;3959244;29;20065;-61
2023/05/03 05:41:31;;;;;;;2.10;1.17;;;16.70;65.90;;;;;;3956204;29;20411;-62
2023/05/03 05:44:13;;;;;;;1.58;1.45;;;16.60;66.00;;;;;;3969410;29;20086;-61
2023/05/03 05:46:59;;;;;;;1.70;1.50;;;16.60;66.20;;;;;;3966626;29;20419;-61
2023/05/03 05:49:41;;;;;;;1.75;1.42;;;16.60;66.20;;;;;;3956725;29;20422;-61
2023/05/03 05:52:25;;;;;;;2.35;1.40;;;16.50;66.30;;;;;;3955701;29;20063;-64
2023/05/03 05:55:12;;;;;;;2.70;1.27;;;16.50;66.20;;;;;;3956348;29;20065;-63
2023/05/03 05:57:55;;;;;;;3.10;1.40;;;16.40;66.60;;;;;;3952303;29;20077;-64
2023/05/03 06:00:43;;;;;;;1.50;1.30;;;16.40;66.50;;;;;;3964740;29;20153;-64
2023/05/03 06:03:30;;;;;;;2.15;1.48;;;16.30;66.70;;;;;;3966633;29;20176;-64
2023/05/03 06:06:14;;;;;;;1.40;1.20;;;16.30;66.70;;;;;;3944575;29;20062;-64
2023/05/03 06:08:57;;;;;;;3.28;1.17;;;16.30;66.60;;;;;;3967266;29;20835;-63
2023/05/03 06:11:42;;;;;;;1.92;1.33;;;16.20;65.90;;;;;;3966848;29;20062;-64
2023/05/03 06:14:24;;;;;;;2.08;1.50;;;16.20;65.80;;;;;;3951981;29;20115;-57
2023/05/03 06:17:07;;;;;;;3.00;1.52;;;16.10;65.40;;;;;;3963174;29;20066;-62
2023/05/03 06:19:51;;;;;;;1.77;1.00;;;16.10;67.00;;;;;;3955514;29;20056;-62
2023/05/03 06:22:37;;;;;;;3.00;1.00;;;16.10;64.50;;;;;;3958298;29;20100;-60
2023/05/03 06:25:21;;;;;;;3.97;1.02;;;16.00;63.20;;;;;;3968297;29;20054;-60
2023/05/03 06:28:04;;;;;;;1.30;1.00;;;16.00;64.00;;;;;;3969237;29;20114;-59
2023/05/03 06:30:51;;;;;;;0.75;0.73;;;16.00;65.10;;;;;;3968188;29;20061;-60
2023/05/03 06:33:33;;;;;;;1.77;0.95;;;16.00;65.20;;;;;;3935994;29;20183;-61
2023/05/03 06:36:17;;;;;;;0.95;0.95;;;15.90;64.70;;;;;;3966065;29;20563;-62
2023/05/03 06:38:59;;;;;;;1.77;0.93;;;15.90;63.40;;;;;;3956511;29;20556;-62
2023/05/03 06:41:43;;;;;;;2.35;1.02;;;15.90;62.20;;;;;;3966575;29;20188;-62
2023/05/03 06:44:26;;;;;;;1.67;1.02;;;15.80;62.20;;;;;;3967520;29;20062;-61
2023/05/03 06:47:08;;;;;;;1.33;0.80;;;15.80;61.80;;;;;;3967007;29;20135;-62
2023/05/03 06:49:51;;;;;;;6.05;0.80;;;15.80;61.60;;;;;;3953386;29;20191;-62
2023/05/03 06:52:35;;;;;;;1.33;0.70;;;15.70;62.10;;;;;;3953784;29;20057;-62
2023/05/03 06:55:17;;;;;;;1.08;0.73;;;15.70;60.90;;;;;;3956512;29;20150;-64
2023/05/03 06:58:00;;;;;;;2.38;0.90;;;15.60;60.80;;;;;;3964118;29;20058;-64
2023/05/03 07:00:44;;;;;;;6.57;1.17;;;15.60;61.80;;;;;;3961773;29;20058;-64
2023/05/03 07:03:27;;;;;;;1.20;0.70;;;15.70;62.00;;;;;;3957365;29;20566;-63
2023/05/03 07:06:09;;;;;;;;;;;15.60;60.10;;;;;;3954405;29;20083;-63
2023/05/03 07:08:55;;;;;;;1.45;0.60;;;15.60;60.90;;;;;;3948064;29;19932;-64
2023/05/03 07:11:39;;;;;;;0.75;0.70;;;15.60;63.00;;;;;;3963756;29;20115;-59
2023/05/03 07:14:23;;;;;;;3.33;0.70;;;15.60;62.70;;;;;;3937928;29;20077;-59
2023/05/03 07:17:05;;;;;;;3.28;0.70;;;15.60;62.50;;;;;;3966764;29;20062;-58
2023/05/03 07:19:48;;;;;;;2.30;0.90;;;15.60;62.40;;;;;;3927878;29;20208;-60
2023/05/03 07:22:31;;;;;;;1.95;0.77;;;15.60;62.70;;;;;;3951447;29;20062;-60
2023/05/03 07:25:16;;;;;;;1.92;1.10;;;15.60;63.00;;;;;;3949138;29;20058;-60
2023/05/03 07:27:59;;;;;;;1.95;1.10;;;15.50;62.50;;;;;;3959785;29;20065;-64
2023/05/03 07:30:41;;;;;;;1.30;0.80;;;15.50;62.20;;;;;;3948175;29;20061;-63
2023/05/03 07:33:27;;;;;;;1.50;0.80;;;15.50;60.90;;;;;;3949311;29;20054;-64
2023/05/03 07:36:12;;;;;;;2.15;0.90;;;15.60;60.40;;;;;;3958185;29;20058;-63
2023/05/03 07:38:55;;;;;;;1.00;0.77;;;15.60;59.10;;;;;;3941144;29;20062;-62
2023/05/03 07:41:42;;;;;;;1.13;0.80;;;15.50;57.60;;;;;;3947009;29;20058;-63
2023/05/03 07:44:26;;;;;;;3.17;1.00;;;15.50;58.20;;;;;;3945910;29;20203;-64
2023/05/03 07:47:09;;;;;;;2.05;1.13;;;15.50;59.40;;;;;;3966635;29;20131;-59
2023/05/03 07:49:53;;;;;;;2.15;1.10;;;15.50;59.30;;;;;;3955634;29;20068;-59
2023/05/03 07:52:37;;;;;;;2.95;0.88;;;15.50;60.20;;;;;;3956858;29;20192;-58
2023/05/03 07:55:23;;;;;;;0.88;0.88;;;15.50;59.30;;;;;;3954190;29;20530;-59
2023/05/03 07:58:14;;;;;;;1.13;1.00;;;15.50;60.80;;;;;;3943924;29;20139;-61
2023/05/03 08:00:57;;;;;;;1.73;1.00;;;15.50;60.80;;;;;;3957019;29;20107;-62
2023/05/03 08:03:42;;;;;;;1.75;0.98;;;15.50;61.80;;;;;;3964222;29;20114;-63
2023/05/03 08:06:24;;;;;;;1.55;0.80;;;15.50;61.90;;;;;;3957750;29;20120;-61
2023/05/03 08:09:07;;;;;;;2.75;1.02;;;15.50;61.30;;;;;;3967242;29;20065;-57
2023/05/03 08:11:50;;;;;;;2.20;0.98;;;15.50;59.60;;;;;;3955330;29;20119;-59
2023/05/03 08:14:36;;;;;;;1.17;0.80;;;15.60;60.00;;;;;;3962065;29;20835;-58
2023/05/03 08:17:21;;;;;;;2.35;1.00;;;15.50;60.30;;;;;;3960771;29;20790;-58
2023/05/03 08:20:06;;;;;;;1.65;1.10;;;15.50;60.50;;;;;;3948500;29;20066;-58
2023/05/03 08:22:50;;;;;;;1.40;0.90;;;15.50;60.10;;;;;;3940112;29;20173;-59
2023/05/03 08:25:33;;;;;;;3.92;1.25;;;15.60;61.30;;;;;;3940517;29;20120;-59
2023/05/03 08:28:16;;;;;;;1.35;1.05;;;15.50;61.80;;;;;;3954480;29;20058;-60
2023/05/03 08:31:02;;;;;;;4.25;1.08;;;15.50;62.10;;;;;;3965121;29;20078;-59
2023/05/03 08:33:46;;;;;;;2.97;1.23;;;15.60;62.60;;;;;;3969483;29;20057;-64
2023/05/03 08:36:30;;;;;;;5.75;1.00;;;15.60;60.60;;;;;;3965958;29;20053;-58
2023/05/03 08:39:14;;;;;;;2.17;1.20;;;15.50;60.50;;;;;;3963958;29;20069;-59
2023/05/03 08:41:56;;;;;;;0.88;0.80;;;15.60;59.90;;;;;;3966336;29;20087;-59
2023/05/03 08:44:46;;;;;;;2.15;1.40;;;15.50;61.30;;;;;;3952341;29;20054;-64
2023/05/03 08:47:36;;;;;;;2.17;1.17;;;15.60;62.30;;;;;;3953964;29;20195;-64
2023/05/03 08:50:20;;;;;;;5.05;1.13;;;15.60;62.20;;;;;;3962092;29;20066;-63
2023/05/03 08:53:05;;;;;;;1.17;0.88;;;15.60;61.20;;;;;;3965743;29;20058;-64
2023/05/03 08:55:49;;;;;;;4.30;1.98;;;15.60;61.80;;;;;;3956251;29;20513;-58
2023/05/03 08:58:36;;;;;;;6.03;1.15;;;15.60;62.10;;;;;;3960057;29;20062;-57
2023/05/03 09:01:19;;;;;;;6.28;1.80;;;15.60;63.20;;;;;;3946961;29;20119;-64
2023/05/03 09:04:04;;;;;;;4.93;1.50;;;15.60;64.60;;;;;;3947365;29;20145;-58
2023/05/03 09:06:47;;;;;;;1.65;1.30;;;15.60;62.80;;;;;;3964787;29;20152;-60
2023/05/03 09:09:35;;;;;;;5.10;1.13;;;15.70;62.80;;;;;;3941128;29;20066;-60
2023/05/03 09:12:36;;;;;;;3.40;0.93;;;15.60;62.20;;;;;;3967191;29;20184;-60
2023/05/03 09:15:22;;;;;;;2.25;0.98;;;15.60;62.70;;;;;;3964453;29;20066;-60
2023/05/03 09:18:08;;;;;;;3.20;1.10;;;15.60;63.40;;;;;;3949804;29;20078;-60
2023/05/03 09:20:53;;;;;;;3.92;2.00;;;15.60;61.50;;;;;;3956045;29;20079;-60
2023/05/03 09:23:36;;;;;;;7.45;2.45;;;15.70;63.20;;;;;;3966243;29;20184;-59
2023/05/03 09:26:31;;;;;;;2.38;1.60;;;15.70;67.50;;;;;;3964906;29;20415;-58
2023/05/03 09:29:29;;;;;;;2.78;1.27;;;15.70;66.90;;;;;;3936175;29;20062;-58
2023/05/03 09:32:11;;;;;;;16.42;3.80;;;15.80;65.90;;;;;;3938273;29;20061;-62
2023/05/03 09:35:09;;;;;;;5.00;1.98;;;15.80;68.10;;;;;;3954024;29;20096;-59
2023/05/03 09:37:57;;;;;;;7.68;2.22;;;15.80;66.20;;;;;;3945189;29;20139;-61
2023/05/03 09:40:48;;;;;;;4.32;1.77;;;15.80;68.00;;;;;;3954437;29;20062;-63
2023/05/03 09:43:30;;;;;;;4.93;1.70;;;15.90;68.00;;;;;;3966424;29;20583;-64
2023/05/03 09:46:14;;;;;;;3.70;1.75;;;15.90;67.40;;;;;;3945215;29;20058;-59
2023/05/03 09:48:57;;;;;;;8.15;2.08;;;15.90;67.20;;;;;;3953007;29;20454;-64
2023/05/03 09:51:41;;;;;;;2.42;1.05;;;15.80;67.10;;;;;;3957089;29;20420;-64
2023/05/03 09:54:25;;;;;;;4.93;1.95;;;15.80;66.30;;;;;;3967301;29;20081;-63
2023/05/03 09:57:08;;;;;;;2.10;1.40;;;15.80;65.70;;;;;;3940451;29;20058;-63
2023/05/03 09:59:52;;;;;;;3.50;1.50;;;15.80;65.90;;;;;;3939977;30;20078;-64
2023/05/03 10:02:35;;;;;;;3.38;1.73;;;15.80;64.10;;;;;;3944527;29;20563;-63
2023/05/03 10:05:21;;;;;;;2.45;1.65;;;15.80;62.90;;;;;;3961309;29;20062;-59
2023/05/03 10:08:04;;;;;;;4.18;1.33;;;15.80;61.80;;;;;;3965959;29;20115;-59
2023/05/03 10:10:53;;;;;;;2.42;1.50;;;15.80;61.80;;;;;;3929688;29;20078;-59
2023/05/03 10:13:36;;;;;;;3.83;1.63;;;15.80;62.10;;;;;;3955236;29;20106;-65
2023/05/03 10:16:23;;;;;;;2.03;1.55;;;15.80;64.50;;;;;;3961366;29;20066;-62
2023/05/03 10:19:11;;;;;;;3.22;1.38;;;15.80;64.70;;;;;;3968121;29;20069;-64
2023/05/03 10:22:02;;;;;;;2.55;1.00;;;15.80;63.90;;;;;;3968211;29;20192;-63
2023/05/03 10:25:08;;;;;;;6.55;2.28;;;15.80;62.10;;;;;;3956551;29;20228;-60
2023/05/03 10:27:53;;;;;;;1.55;1.00;;;15.80;62.30;;;;;;3953506;29;20142;-62
2023/05/03 10:30:36;;;;;;;2.80;1.17;;;15.80;64.00;;;;;;3981512;29;20077;-63
2023/05/03 10:33:34;;;;;;;3.08;1.40;;;15.80;64.30;;;;;;3966103;29;20541;-57
2023/05/03 10:36:17;;;;;;;3.97;1.45;;;15.80;63.20;;;;;;3940135;30;20200;-61
2023/05/03 10:39:00;;;;;;;2.70;1.63;;;15.80;63.60;;;;;;3947176;29;20507;-57
2023/05/03 10:41:41;;;;;;;1.65;1.50;;;15.80;64.00;;;;;;3952225;29;20054;-64
2023/05/03 10:44:29;;;;;;;2.03;1.70;;;15.80;62.40;;;;;;3958397;29;20062;-62
2023/05/03 10:47:13;;;;;;;1.48;1.38;;;15.80;61.30;;;;;;3954021;29;20175;-57
2023/05/03 10:50:30;;;;;;;1.75;1.30;;;15.80;62.50;;;;;;3965392;29;20062;-60
2023/05/03 10:53:39;;;;;;;1.30;1.10;;;15.80;61.00;;;;;;3931594;30;20113;-53
2023/05/03 10:56:22;;;;;;;1.83;1.38;;;15.80;59.60;;;;;;3934168;30;20062;-52
2023/05/03 10:59:08;;;;;;;2.55;1.10;;;15.80;61.00;;;;;;3945518;29;20058;-62
2023/05/03 11:01:53;;;;;;;1.63;1.13;;;15.80;61.20;;;;;;3965581;29;20391;-53
2023/05/03 11:04:44;;;;;;;1.67;1.30;;;15.80;59.90;;;;;;3965991;29;20084;-54
2023/05/03 11:07:28;;;;;;;9.55;1.77;;;15.90;61.00;;;;;;3965311;29;20061;-63
2023/05/03 11:10:20;;;;;;;5.28;1.27;;;15.90;62.70;;;;;;3972193;29;20069;-63
2023/05/03 11:13:02;;;;;;;3.17;1.25;;;15.90;62.80;;;;;;3951481;29;20066;-55
2023/05/03 11:15:45;;;;;;;1.67;1.00;;;15.90;64.50;;;;;;3946127;29;20192;-55
2023/05/03 11:18:30;;;;;;;3.15;1.50;;;15.90;62.20;;;;;;3951805;29;20062;-53
2023/05/03 11:21:12;;;;;;;7.00;1.80;;;16.00;62.80;;;;;;3951550;29;20068;-55
2023/05/03 11:23:58;;;;;;;2.03;1.25;;;16.00;61.10;;;;;;3920675;29;20100;-55
2023/05/03 11:26:42;;;;;;;2.35;1.50;;;16.00;60.10;;;;;;3949723;29;20058;-56
2023/05/03 11:29:26;;;;;;;3.05;1.30;;;16.00;59.70;;;;;;3965244;29;20489;-53
2023/05/03 11:32:09;;;;;;;2.17;1.23;;;16.00;61.90;;;;;;3952186;29;20062;-56
2023/05/03 11:34:53;;;;;;;3.80;1.35;;;16.00;62.50;;;;;;3967610;29;20058;-53
2023/05/03 11:37:36;;;;;;;3.50;1.30;;;16.00;62.80;;;;;;3951440;29;20685;-63
2023/05/03 11:40:18;;;;;;;1.38;1.00;;;16.00;64.00;;;;;;3951805;29;20066;-63
2023/05/03 11:43:01;;;;;;;1.27;1.10;;;16.10;62.80;;;;;;3952989;29;20065;-63
2023/05/03 11:45:45;;;;;;;1.73;0.90;;;16.10;60.30;;;;;;3950280;29;20066;-62
2023/05/03 11:48:32;;;;;;;2.50;1.17;;;16.10;59.20;;;;;;3964367;29;20065;-63
2023/05/03 11:51:22;;;;;;;2.05;1.27;;;16.10;61.20;;;;;;3958795;29;20061;-64
2023/05/03 11:54:06;;;;;;;3.85;1.15;;;16.10;59.80;;;;;;3948782;29;20204;-62
2023/05/03 11:57:13;;;;;;;4.13;1.77;;;16.20;59.40;;;;;;3935823;29;20426;-63
2023/05/03 12:00:12;;;;;;;3.17;1.67;;;16.20;60.00;;;;;;3979868;29;20532;-52
2023/05/03 12:02:53;;;;;;;4.22;1.42;;;16.20;60.00;;;;;;3962015;29;22666;-55
2023/05/03 12:05:35;;;;;;;5.43;1.50;;;16.20;61.50;;;;;;3962291;29;20547;-55
2023/05/03 12:08:20;;;;;;;2.72;1.40;;;16.20;61.20;;;;;;3965633;29;20057;-54
2023/05/03 12:11:03;;;;;;;5.15;1.67;;;16.30;61.10;;;;;;3946714;29;20179;-63
2023/05/03 12:13:58;;;;;;;3.22;1.58;;;16.30;59.20;;;;;;3963222;29;20422;-55
2023/05/03 12:16:50;;;;;;;3.70;1.60;;;16.30;60.30;;;;;;3965186;29;20053;-63
2023/05/03 12:19:33;;;;;;;4.22;1.83;;;16.30;60.60;;;;;;3967446;29;20077;-62
2023/05/03 12:22:20;;;;;;;2.83;1.30;;;16.30;61.30;;;;;;3950392;29;20111;-54
2023/05/03 12:25:10;;;;;;;1.83;1.23;;;16.30;62.00;;;;;;3945948;29;20062;-62
2023/05/03 12:27:59;;;;;;;1.63;1.30;;;16.30;61.40;;;;;;3946748;29;20558;-62
2023/05/03 12:30:59;;;;;;;2.10;1.50;;;16.30;61.30;;;;;;3964274;29;20065;-55
2023/05/03 12:33:41;;;;;;;1.95;1.30;;;16.30;61.00;;;;;;3963095;29;20139;-62
2023/05/03 12:36:26;;;;;;;1.80;1.27;;;16.30;61.60;;;;;;3959659;29;20503;-62
2023/05/03 12:39:11;;;;;;;3.55;1.60;;;16.30;61.50;;;;;;3964109;29;20187;-63
2023/05/03 12:41:58;;;;;;;8.30;2.08;;;16.30;60.80;;;;;;3964357;29;20540;-62
2023/05/03 12:44:44;;;;;;;3.30;1.20;;;16.30;61.50;;;;;;3960559;29;20061;-63
2023/05/03 12:47:28;;;;;;;5.53;1.30;;;16.30;60.50;;;;;;3948126;29;20067;-62
2023/05/03 12:50:11;;;;;;;1.75;1.33;;;16.30;59.30;;;;;;3956076;29;20095;-63
2023/05/03 12:52:57;;;;;;;2.03;1.13;;;16.30;59.40;;;;;;3966033;29;20066;-63
2023/05/03 12:55:43;;;;;;;2.72;1.63;;;16.30;58.90;;;;;;3954057;29;20224;-54
2023/05/03 12:58:30;;;;;;;3.53;1.38;;;16.30;59.80;;;;;;3967328;29;20398;-52
2023/05/03 13:01:32;;;;;;;2.63;1.45;;;16.30;61.30;;;;;;3954756;29;20514;-53
2023/05/03 13:04:18;;;;;;;7.03;1.92;;;16.40;61.00;;;;;;3952905;29;20062;-54
2023/05/03 13:07:20;;;;;;;10.70;1.67;;;16.40;59.50;;;;;;3955345;29;20057;-63
2023/05/03 13:10:09;;;;;;;4.53;1.90;;;16.40;59.10;;;;;;3952240;29;20066;-63
2023/05/03 13:12:54;;;;;;;3.88;1.60;;;16.40;58.60;;;;;;3954503;29;20111;-63
2023/05/03 13:15:40;;;;;;;1.90;1.58;;;16.40;59.60;;;;;;3939621;29;20517;-62
2023/05/03 13:18:22;;;;;;;5.05;2.03;;;16.40;59.90;;;;;;3953604;29;20422;-62
2023/05/03 13:21:05;;;;;;;2.30;2.10;;;16.40;59.70;;;;;;3962169;29;20143;-63
2023/05/03 13:23:48;;;;;;;4.32;1.95;;;16.40;60.40;;;;;;3954002;29;20062;-60
2023/05/03 13:26:31;;;;;;;3.05;2.22;;;16.40;59.70;;;;;;3960872;29;20083;-63
2023/05/03 13:29:13;;;;;;;2.25;2.03;;;16.50;58.70;;;;;;3954806;29;20053;-63
2023/05/03 13:31:58;;;;;;;4.43;1.98;;;16.50;58.10;;;;;;3949178;29;20182;-51
2023/05/03 13:34:41;;;;;;;2.55;2.15;;;16.50;58.10;;;;;;3980579;29;20053;-62
2023/05/03 13:37:24;;;;;;;3.45;1.90;;;16.40;58.50;;;;;;3958621;29;20155;-62
2023/05/03 13:40:07;;;;;;;3.50;1.90;;;16.50;58.70;;;;;;3954915;29;20070;-62
2023/05/03 13:42:49;;;;;;;2.00;1.85;;;16.40;59.40;;;;;;3951864;29;20189;-63
2023/05/03 13:45:32;;;;;;;5.38;1.90;;;16.50;59.10;;;;;;3939381;29;20526;-62
2023/05/03 13:48:19;;;;;;;2.83;2.53;;;16.50;58.10;;;;;;3949271;29;20069;-63
2023/05/03 13:51:07;;;;;;;6.50;2.10;;;16.50;59.10;;;;;;3953016;29;20066;-62
2023/05/03 13:53:50;;;;;;;5.75;2.03;;;16.40;57.90;;;;;;3965967;29;20158;-62
2023/05/03 13:56:34;;;;;;;2.20;2.10;;;16.50;58.00;;;;;;3960308;29;20058;-63
2023/05/03 13:59:17;;;;;;;5.20;2.20;;;16.40;58.60;;;;;;3947532;29;20474;-62
2023/05/03 14:02:01;;;;;;;4.70;2.10;;;16.50;57.40;;;;;;3948874;29;20058;-63
2023/05/03 14:04:46;;;;;;;2.35;2.00;;;16.40;58.10;;;;;;3960241;29;20069;-62
2023/05/03 14:07:32;;;;;;;3.53;1.92;;;16.50;58.20;;;;;;3968527;29;20069;-62
2023/05/03 14:10:15;;;;;;;3.55;1.90;;;16.50;58.20;;;;;;3949328;29;20058;-55
2023/05/03 14:12:59;;;;;;;4.22;2.15;;;16.50;58.80;;;;;;3939360;29;20073;-53
2023/05/03 14:15:41;;;;;;;3.97;2.20;;;16.50;58.30;;;;;;3952904;29;20062;-54
2023/05/03 14:18:24;;;;;;;2.63;2.03;;;16.50;58.20;;;;;;3978342;29;20057;-54
2023/05/03 14:21:09;;;;;;;2.38;2.17;;;16.50;58.30;;;;;;3967904;29;20070;-51